Time;durP1;ratioP1;P1;durP2;ratioP2;P2;SDS_P1;SDS_P2;PMS_P1;PMS_P2;Temp;Humidity;BMP_temperature;BMP_pressure;BME280_temperature;BME280_humidity;BME280_pressure;Samples;Min_cycle;Max_cycle;Signal;HPM_P1;HPM_P2
2022/05/04 00:02:54;;;;;;;93.53;85.63;;;;;;;12.85;100.00;101992.47;1832119;76;86217;-78
2022/05/04 00:08:39;;;;;;;92.93;85.33;;;;;;;12.90;100.00;101997.52;1881006;75;86143;-76
2022/05/04 00:14:25;;;;;;;91.40;83.30;;;;;;;12.71;100.00;101987.38;1920729;73;86653;-77
2022/05/04 00:20:12;;;;;;;98.90;90.50;;;;;;;12.64;100.00;101990.98;1985737;71;39478;-78
2022/05/04 00:26:13;;;;;;;95.53;87.40;;;;;;;12.54;100.00;101991.47;1984731;71;39658;-77
2022/05/04 00:31:57;;;;;;;94.40;86.10;;;;;;;12.62;100.00;101988.20;1890009;75;85518;-78
2022/05/04 00:37:46;;;;;;;97.27;88.97;;;;;;;12.48;100.00;101991.19;1883257;73;86270;-75
2022/05/04 00:43:24;;;;;;;95.97;87.77;;;;;;;12.62;100.00;101997.38;1878125;75;86272;-76
2022/05/04 00:49:27;;;;;;;94.73;86.73;;;;;;;12.51;100.00;101992.87;1927434;71;85882;-82
2022/05/04 00:55:13;;;;;;;93.90;85.57;;;;;;;12.51;100.00;101990.08;1943151;70;39601;-84
2022/05/04 01:00:56;;;;;;;97.27;89.27;;;;;;;12.42;100.00;101993.09;1840235;76;86251;-78
2022/05/04 01:06:41;;;;;;;94.70;86.63;;;;;;;12.54;100.00;101991.47;1872331;76;86788;-75
2022/05/04 01:12:25;;;;;;;95.20;87.13;;;;;;;12.51;100.00;101987.30;1931449;71;86552;-77
2022/05/04 01:18:09;;;;;;;95.53;87.27;;;;;;;12.56;100.00;101978.13;1939195;71;39593;-76
2022/05/04 01:23:55;;;;;;;92.03;84.33;;;;;;;12.36;100.00;101979.41;1893353;74;86111;-77
2022/05/04 01:29:41;;;;;;;94.27;86.43;;;;;;;12.42;100.00;101988.91;1899708;73;86091;-79
2022/05/04 01:35:26;;;;;;;92.27;84.37;;;;;;;12.39;100.00;101974.68;1940218;72;85459;-75
2022/05/04 01:47:17;;;;;;;91.80;84.30;;;;;;;12.30;100.00;101964.60;1978278;71;39587;-78
2022/05/04 01:53:02;;;;;;;89.00;81.50;;;;;;;12.38;100.00;101958.52;1851786;75;86353;-77
2022/05/04 01:58:45;;;;;;;92.67;85.20;;;;;;;12.32;100.00;101959.03;1874692;74;86200;-78
2022/05/04 02:04:29;;;;;;;91.70;84.27;;;;;;;12.36;100.00;101954.34;1864424;75;86173;-81
2022/05/04 02:10:13;;;;;;;91.57;83.97;;;;;;;12.24;100.00;101958.70;1944159;71;39673;-77
2022/05/04 02:15:57;;;;;;;91.03;83.20;;;;;;;12.19;100.00;101957.30;1889996;74;86197;-79
2022/05/04 02:21:41;;;;;;;93.33;85.70;;;;;;;12.11;100.00;101964.19;1845713;76;85991;-77
2022/05/04 02:27:26;;;;;;;91.70;84.20;;;;;;;12.20;100.00;101964.53;1913149;73;86321;-77
2022/05/04 02:33:11;;;;;;;92.30;84.77;;;;;;;12.16;100.00;101960.05;1922977;70;40772;-77
2022/05/04 02:38:55;;;;;;;93.67;85.67;;;;;;;12.10;100.00;101955.58;1853876;76;86144;-78
2022/05/04 02:44:39;;;;;;;94.17;86.30;;;;;;;12.08;100.00;101958.33;1879634;75;85941;-77
2022/05/04 02:50:23;;;;;;;95.60;87.53;;;;;;;12.10;100.00;101947.22;1913155;74;86326;-76
2022/05/04 02:56:08;;;;;;;94.60;86.53;;;;;;;12.05;100.00;101943.00;1973744;71;39768;-77
2022/05/04 03:08:00;;;;;;;95.23;87.13;;;;;;;12.10;100.00;101931.06;1824811;76;86048;-78
2022/05/04 03:13:44;;;;;;;93.97;85.70;;;;;;;12.11;100.00;101938.28;1887459;73;85331;-82
2022/05/04 03:19:28;;;;;;;97.83;89.03;;;;;;;12.14;100.00;101925.23;1946462;71;86419;-78
2022/05/04 03:25:14;;;;;;;94.53;86.23;;;;;;;12.07;100.00;101922.67;1937754;71;39558;-76
2022/05/04 03:30:50;;;;;;;97.43;88.30;;;;;;;11.97;100.00;101922.63;1954344;71;86068;-77
2022/05/04 03:36:37;;;;;;;99.00;90.27;;;;;;;12.06;100.00;101914.61;1851214;75;86269;-76
2022/05/04 03:42:20;;;;;;;98.07;89.10;;;;;;;12.05;100.00;101915.70;1951409;73;86145;-78
2022/05/04 03:48:05;;;;;;;100.57;91.23;;;;;;;12.11;100.00;101914.61;1836871;76;86023;-77
2022/05/04 03:53:50;;;;;;;101.70;91.80;;;;;;;11.95;100.00;101903.94;1807122;78;86514;-77
2022/05/04 03:59:33;;;;;;;99.07;89.83;;;;;;;11.99;100.00;101912.59;1808837;77;86542;-75
2022/05/04 04:05:17;;;;;;;101.90;92.50;;;;;;;12.08;100.00;101900.68;1982092;71;39550;-80
2022/05/04 04:11:01;;;;;;;101.20;91.50;;;;;;;11.96;100.00;101907.02;1839145;76;85729;-77
2022/05/04 04:16:46;;;;;;;101.30;91.70;;;;;;;12.05;100.00;101905.41;1872672;75;86162;-76
2022/05/04 04:22:30;;;;;;;104.63;94.63;;;;;;;12.05;100.00;101905.41;1804313;77;86617;-81
2022/05/04 04:28:16;;;;;;;106.00;95.30;;;;;;;11.95;100.00;101911.45;1978516;71;39558;-83
2022/05/04 04:34:01;;;;;;;103.80;93.57;;;;;;;12.10;100.00;101901.81;1814289;76;85371;-77
2022/05/04 04:39:45;;;;;;;105.40;95.00;;;;;;;11.97;100.00;101909.25;1884216;73;86195;-76
2022/05/04 04:45:30;;;;;;;100.07;89.63;;;;;;;11.97;100.00;101899.51;1803724;78;85390;-79
2022/05/04 04:51:14;;;;;;;106.13;95.33;;;;;;;12.06;100.00;101900.68;1980788;71;39408;-76
2022/05/04 04:56:58;;;;;;;103.77;93.10;;;;;;;11.94;100.00;101911.19;1794076;77;86272;-75
2022/05/04 05:02:41;;;;;;;102.77;92.43;;;;;;;12.03;100.00;101901.20;1885125;75;86163;-78
2022/05/04 05:08:27;;;;;;;103.33;93.13;;;;;;;11.96;100.00;101906.17;1910653;72;86149;-77
2022/05/04 05:20:14;;;;;;;105.27;95.00;;;;;;;11.91;100.00;101904.75;1985988;71;39782;-76
2022/05/04 05:25:58;;;;;;;105.33;94.80;;;;;;;11.96;100.00;101911.20;1848071;76;86253;-76
2022/05/04 05:31:43;;;;;;;107.00;96.13;;;;;;;11.95;100.00;101912.30;1881496;73;86437;-77
2022/05/04 05:37:27;;;;;;;108.60;97.70;;;;;;;12.00;100.00;101908.16;1913369;72;86371;-76
2022/05/04 05:43:11;;;;;;;106.77;96.00;;;;;;;12.00;100.00;101911.48;1982883;71;39861;-76
2022/05/04 05:48:58;;;;;;;107.87;97.07;;;;;;;12.09;100.00;101913.50;1844969;76;86366;-78
2022/05/04 05:54:41;;;;;;;109.20;98.23;;;;;;;12.04;100.00;101914.02;1889408;74;86325;-77
2022/05/04 06:00:24;;;;;;;108.33;97.37;;;;;;;12.16;100.00;101925.78;1942656;71;86456;-83
2022/05/04 06:06:09;;;;;;;112.93;101.37;;;;;;;12.16;100.00;101925.78;1976949;70;39550;-80
2022/05/04 06:11:54;;;;;;;109.93;99.13;;;;;;;12.18;100.00;101931.94;1893611;74;86177;-76
2022/05/04 06:17:37;;;;;;;113.70;102.53;;;;;;;12.16;100.00;101939.16;1837578;76;86221;-79
2022/05/04 06:23:23;;;;;;;109.97;98.97;;;;;;;12.22;100.00;101942.28;1923053;73;86198;-78
2022/05/04 06:29:08;;;;;;;110.17;99.10;;;;;;;12.41;100.00;101938.46;1987044;71;39562;-79
2022/05/04 06:34:53;;;;;;;108.90;98.10;;;;;;;12.44;100.00;101928.19;1875873;74;86248;-85
2022/05/04 06:40:39;;;;;;;111.03;100.47;;;;;;;12.66;100.00;101937.77;1843042;76;86284;-77
2022/05/04 06:46:23;;;;;;;110.77;99.73;;;;;;;12.84;100.00;101936.41;1911674;74;86567;-80
2022/05/04 06:52:08;;;;;;;114.30;103.57;;;;;;;13.04;100.00;101927.56;1934068;71;39594;-76
2022/05/04 06:57:51;;;;;;;109.23;98.80;;;;;;;13.01;100.00;101925.85;1800571;78;86215;-76
2022/05/04 07:03:37;;;;;;;105.57;95.27;;;;;;;13.14;100.00;101923.96;1863417;74;86257;-79
2022/05/04 07:09:22;;;;;;;106.07;95.63;;;;;;;13.37;100.00;101927.64;1926391;71;85861;-78
2022/05/04 07:15:08;;;;;;;109.50;99.33;;;;;;;13.37;100.00;101935.16;1895071;74;86257;-83
2022/05/04 07:20:53;;;;;;;108.63;98.87;;;;;;;13.53;100.00;101928.47;1893566;74;85348;-79
2022/05/04 07:26:38;;;;;;;103.67;93.87;;;;;;;13.68;100.00;101932.68;1832605;77;86118;-80
2022/05/04 07:32:23;;;;;;;103.13;93.43;;;;;;;13.79;100.00;101935.73;1915926;72;86550;-76
2022/05/04 07:38:10;;;;;;;103.03;93.40;;;;;;;14.03;100.00;101933.20;1984704;71;39700;-77
2022/05/04 07:43:58;;;;;;;102.30;92.73;;;;;;;14.31;100.00;101921.95;1954849;71;86639;-86
2022/05/04 07:49:44;;;;;;;99.73;90.97;;;;;;;14.40;100.00;101924.47;1895013;74;86232;-78
2022/05/04 07:55:30;;;;;;;103.87;94.70;;;;;;;14.64;100.00;101926.04;1813219;77;86257;-74
2022/05/04 08:07:16;;;;;;;99.73;90.77;;;;;;;14.82;100.00;101922.61;1983111;71;39793;-75
2022/05/04 08:13:03;;;;;;;98.53;90.00;;;;;;;14.91;100.00;101929.28;1836389;76;85452;-81
2022/05/04 08:18:46;;;;;;;93.57;85.57;;;;;;;15.12;100.00;101922.43;1873467;75;85287;-79
2022/05/04 08:24:34;;;;;;;93.60;85.63;;;;;;;15.06;100.00;101917.98;1858794;74;86162;-85
2022/05/04 08:30:20;;;;;;;89.70;81.63;;;;;;;15.25;100.00;101911.98;1979233;71;39571;-75
2022/05/04 08:36:09;;;;;;;90.57;83.07;;;;;;;15.54;100.00;101905.63;1895527;74;86679;-85
2022/05/04 08:41:54;;;;;;;88.83;81.53;;;;;;;15.76;100.00;101904.03;1879315;75;86705;-73
2022/05/04 08:47:40;;;;;;;81.47;74.97;;;;;;;16.00;100.00;101892.89;1894045;75;86045;-80
2022/05/04 08:53:34;;;;;;;84.57;77.77;;;;;;;16.53;100.00;101889.45;1873082;75;86334;-72
2022/05/04 08:59:17;;;;;;;78.20;71.83;;;;;;;16.42;100.00;101896.89;1986625;71;39548;-73
2022/05/04 09:05:22;;;;;;;76.03;70.00;;;;;;;16.40;100.00;101888.20;1884868;74;86416;-70
2022/05/04 09:11:11;;;;;;;71.57;66.10;;;;;;;16.56;100.00;101894.45;1977246;71;39565;-77
2022/05/04 09:17:06;;;;;;;74.30;69.00;;;;;;;16.18;100.00;101894.07;1844652;76;86339;-77
2022/05/04 09:22:52;;;;;;;77.10;71.30;;;;;;;16.17;100.00;101910.64;1802143;78;86771;-79
2022/05/04 09:28:37;;;;;;;67.80;62.80;;;;;;;16.20;100.00;101899.66;1848043;76;86520;-78
2022/05/04 09:34:27;;;;;;;69.87;65.00;;;;;;;16.21;100.00;101897.70;1917566;72;86575;-78
2022/05/04 09:46:12;;;;;;;66.12;61.35;;;;;;;16.47;100.00;101898.23;1797152;76;938715;-78
2022/05/04 09:48:42;;;;;;;66.07;61.27;;;;;;;16.61;100.00;101902.84;1775275;79;938905;-80
2022/05/04 09:51:13;;;;;;;65.00;60.37;;;;;;;16.64;100.00;101898.61;1802442;78;940800;-82
2022/05/04 09:53:43;;;;;;;63.77;59.10;;;;;;;16.68;100.00;101894.91;1802630;77;938949;-77
2022/05/04 09:59:30;;;;;;;58.63;54.60;;;;;;;16.56;100.00;101890.83;1913517;74;86491;-75
2022/05/04 10:05:17;;;;;;;60.50;56.20;;;;;;;16.38;100.00;101893.30;1985034;71;39520;-85
2022/05/04 10:11:03;;;;;;;60.37;56.30;;;;;;;16.20;100.00;101889.02;1835569;76;86476;-75
2022/05/04 10:16:52;;;;;;;57.97;54.03;;;;;;;16.24;100.00;101894.30;1882368;74;85545;-78
2022/05/04 10:22:42;;;;;;;60.40;56.43;;;;;;;16.05;100.00;101888.60;1885192;74;85334;-85
2022/05/04 10:28:27;;;;;;;56.90;53.10;;;;;;;16.22;100.00;101889.53;1912275;72;86569;-85
2022/05/04 10:34:15;;;;;;;58.23;54.43;;;;;;;16.26;100.00;101884.44;1986297;71;39567;-78
2022/05/04 10:40:08;;;;;;;53.30;49.80;;;;;;;16.36;100.00;101889.09;1825699;76;86133;-76
2022/05/04 10:46:13;;;;;;;50.20;46.97;;;;;;;16.40;100.00;101892.97;1943471;71;40372;-74
2022/05/04 10:52:04;;;;;;;50.77;47.50;;;;;;;16.62;100.00;101891.89;1981683;70;85540;-75
2022/05/04 10:57:46;;;;;;;53.00;49.70;;;;;;;16.52;100.00;101895.34;1912072;74;86246;-79
2022/05/04 11:03:36;;;;;;;52.90;49.60;;;;;;;16.60;100.00;101903.16;1863470;75;85442;-76
2022/05/04 11:09:29;;;;;;;49.77;46.77;;;;;;;16.33;100.00;101913.54;1906186;72;86421;-83
2022/05/04 11:15:14;;;;;;;51.93;48.93;;;;;;;16.33;100.00;101918.59;1976287;71;39426;-75
2022/05/04 11:21:01;;;;;;;51.70;48.60;;;;;;;16.17;100.00;101914.84;1810176;77;86441;-79
2022/05/04 11:26:46;;;;;;;52.73;49.57;;;;;;;16.16;100.00;101914.58;1875201;74;86344;-76
2022/05/04 11:32:48;;;;;;;52.77;49.67;;;;;;;16.24;100.00;101906.34;1887295;73;86315;-79
2022/05/04 11:38:33;;;;;;;52.30;49.20;;;;;;;16.06;100.00;101900.66;1862048;76;85821;-74
2022/05/04 11:44:21;;;;;;;56.13;52.83;;;;;;;16.14;100.00;101899.44;1920401;71;40418;-75
2022/05/04 11:50:10;;;;;;;62.10;58.33;;;;;;;16.43;100.00;101888.75;1802292;78;86314;-74
2022/05/04 11:55:55;;;;;;;56.63;53.33;;;;;;;16.57;100.00;101879.33;1850528;76;86204;-78
2022/05/04 12:01:38;;;;;;;53.10;50.10;;;;;;;16.61;100.00;101862.16;1884344;74;85984;-76
2022/05/04 12:07:22;;;;;;;49.33;46.60;;;;;;;17.26;100.00;101849.11;1918329;72;86014;-76
2022/05/04 12:13:07;;;;;;;42.67;40.27;;;;;;;17.45;100.00;101842.63;1895819;74;85425;-85
2022/05/04 12:18:52;;;;;;;41.00;38.70;;;;;;;17.53;100.00;101838.55;1896659;74;86132;-76
2022/05/04 12:24:38;;;;;;;44.07;41.57;;;;;;;17.85;100.00;101825.61;1898782;74;85684;-76
2022/05/04 12:39:34;;;;;;;37.37;35.37;;;;;;;18.18;100.00;101810.34;1925805;72;86384;-78
2022/05/04 12:42:06;;;;;;;32.10;30.40;;;;;;;18.31;100.00;101812.89;1817368;74;938881;-75
2022/05/04 12:44:36;;;;;;;29.70;28.03;;;;;;;18.35;100.00;101813.35;1844104;77;940963;-75
2022/05/04 12:47:07;;;;;;;26.57;25.17;;;;;;;18.63;100.00;101809.94;1834569;74;940708;-75
2022/05/04 12:49:38;;;;;;;25.63;24.27;;;;;;;18.72;100.00;101812.83;1849558;76;940915;-77
2022/05/04 12:56:45;;;;;;;25.87;24.47;;;;;;;18.32;100.00;101801.87;1938010;73;86572;-75
2022/05/04 13:01:10;;;;;;;23.73;22.53;;;;;;;18.57;100.00;101798.52;1960796;71;39813;-82
2022/05/04 13:06:54;;;;;;;24.93;23.43;;;;;;;18.54;100.00;101793.53;1883773;74;86199;-77
2022/05/04 13:12:42;;;;;;;22.43;21.03;;;;;;;18.90;100.00;101787.34;1877832;74;86135;-75
2022/05/04 13:18:27;;;;;;;20.57;19.37;;;;;;;19.01;100.00;101782.28;1925209;73;86565;-80
2022/05/04 13:24:13;;;;;;;18.40;17.50;;;;;;;19.16;100.00;101782.48;1986639;71;39503;-82
2022/05/04 13:29:57;;;;;;;18.40;17.20;;;;;;;18.76;100.00;101780.08;1847940;75;86519;-75
2022/05/04 13:35:41;;;;;;;14.93;14.23;;;;;;;18.80;100.00;101769.28;1881213;73;86293;-76
2022/05/04 13:41:27;;;;;;;13.00;12.30;;;;;;;19.23;100.00;101772.42;1908129;72;85954;-79
2022/05/04 13:47:19;;;;;;;12.60;11.90;;;;;;;19.32;100.00;101767.69;1981385;71;39635;-79
2022/05/04 13:53:16;;;;;;;11.77;11.27;;;;;;;18.85;100.00;101770.57;1883525;74;86270;-81
2022/05/04 13:59:00;;;;;;;12.80;12.10;;;;;;;18.59;100.00;101773.73;1972778;71;86285;-76
2022/05/04 14:04:44;;;;;;;12.30;11.60;;;;;;;18.68;100.00;101760.57;1884996;73;86043;-76
2022/05/04 14:10:29;;;;;;;12.03;11.50;;;;;;;18.83;100.00;101770.04;1925449;72;86319;-79
2022/05/04 14:16:14;;;;;;;11.30;10.80;;;;;;;18.60;100.00;101761.33;1980859;71;39489;-79
2022/05/04 14:22:01;;;;;;;12.13;11.53;;;;;;;18.64;100.00;101753.91;1880502;74;86361;-78
2022/05/04 14:27:45;;;;;;;12.47;11.87;;;;;;;18.64;100.00;101749.13;1880160;74;86586;-78
2022/05/04 14:33:37;;;;;;;12.33;11.83;;;;;;;18.82;100.00;101739.41;1809115;77;86240;-83
2022/05/04 14:39:20;;;;;;;12.20;11.60;;;;;;;19.16;100.00;101743.89;1982808;71;63867;-78
2022/05/04 14:45:07;;;;;;;12.80;12.10;;;;;;;19.17;100.00;101746.13;1802564;78;86336;-73
2022/05/04 14:50:52;;;;;;;12.90;12.30;;;;;;;19.11;100.00;101728.52;1877660;74;86335;-73
2022/05/04 14:56:36;;;;;;;13.53;12.70;;;;;;;19.03;100.00;101722.27;1821470;77;86208;-78
2022/05/04 15:02:19;;;;;;;13.07;12.47;;;;;;;19.07;100.00;101724.11;1984993;71;39788;-76
2022/05/04 15:08:04;;;;;;;11.87;11.27;;;;;;;18.91;100.00;101723.42;1843565;76;86276;-77
2022/05/04 15:13:53;;;;;;;12.00;11.30;;;;;;;18.89;100.00;101722.90;1882900;74;86395;-78
2022/05/04 15:19:40;;;;;;;12.30;11.67;;;;;;;18.73;100.00;101724.44;1792722;78;85999;-77
2022/05/04 15:25:26;;;;;;;12.03;11.40;;;;;;;18.56;100.00;101713.87;1909898;74;86191;-78
2022/05/04 15:31:11;;;;;;;11.80;11.20;;;;;;;18.50;100.00;101708.89;1981397;71;39522;-80
2022/05/04 15:36:59;;;;;;;15.27;14.33;;;;;;;18.33;100.00;101710.14;1840591;76;85706;-75
2022/05/04 15:42:46;;;;;;;14.20;13.30;;;;;;;18.49;100.00;101704.98;1891379;74;86437;-82
2022/05/04 15:48:32;;;;;;;14.50;13.87;;;;;;;18.54;100.00;101695.05;1870883;75;86140;-80
2022/05/04 15:54:17;;;;;;;13.40;12.70;;;;;;;18.29;100.00;101703.48;1973929;71;39495;-79
2022/05/04 16:00:01;;;;;;;11.50;11.00;;;;;;;18.51;100.00;101702.70;1844204;76;86312;-77
2022/05/04 16:05:45;;;;;;;15.60;14.90;;;;;;;18.50;100.00;101690.61;1873182;75;86291;-75
2022/05/04 16:11:33;;;;;;;29.00;27.30;;;;;;;17.88;100.00;101711.17;1810196;77;86319;-81
2022/05/04 16:23:29;;;;;;;45.63;43.13;;;;;;;17.21;100.00;101721.42;1913663;74;85335;-83
2022/05/04 16:29:15;;;;;;;53.23;50.23;;;;;;;17.05;100.00;101742.50;1987328;71;39798;-76
2022/05/04 16:34:59;;;;;;;58.67;54.93;;;;;;;16.87;100.00;101766.38;1825013;76;86530;-79
2022/05/04 16:40:47;;;;;;;65.60;61.60;;;;;;;16.34;100.00;101798.84;1871177;73;86203;-78
2022/05/04 16:46:35;;;;;;;62.60;58.13;;;;;;;15.93;100.00;101811.95;1823262;77;86347;-77
2022/05/04 16:52:19;;;;;;;64.60;60.07;;;;;;;15.67;100.00;101829.33;1947462;71;39593;-79
2022/05/04 17:01:21;;;;;;;58.17;53.67;;;;;;;15.86;100.00;101813.45;1950104;72;85397;-77
2022/05/04 17:07:05;;;;;;;66.67;61.63;;;;;;;15.69;100.00;101806.91;1950226;71;86547;-76
2022/05/04 17:12:50;;;;;;;66.87;61.87;;;;;;;15.61;100.00;101798.31;1801701;78;86058;-72
2022/05/04 17:18:34;;;;;;;73.07;68.13;;;;;;;15.56;100.00;101803.41;1809190;77;86170;-71
2022/05/04 17:24:19;;;;;;;83.90;78.33;;;;;;;15.73;100.00;101801.55;1980902;71;39517;-71
2022/05/04 17:30:03;;;;;;;73.27;67.23;;;;;;;15.82;100.00;101809.02;1825764;76;86361;-70
2022/05/04 17:41:50;;;;;;;74.57;69.30;;;;;;;15.93;100.00;101818.95;1798347;78;86590;-73
2022/05/04 17:47:40;;;;;;;70.03;64.67;;;;;;;15.74;100.00;101834.88;1858980;76;85190;-79
2022/05/04 17:53:25;;;;;;;71.37;66.07;;;;;;;15.53;100.00;101840.41;1924308;73;86179;-83
2022/05/04 17:59:09;;;;;;;69.37;64.27;;;;;;;15.56;100.00;101833.37;1986295;71;39614;-73
2022/05/04 18:04:53;;;;;;;62.53;57.43;;;;;;;15.46;100.00;101833.70;1889592;74;86527;-77
2022/05/04 18:10:40;;;;;;;63.73;58.37;;;;;;;15.44;100.00;101821.98;1868626;75;86280;-72
2022/05/04 18:16:25;;;;;;;63.70;58.60;;;;;;;15.49;100.00;101835.06;1912709;73;86063;-77
2022/05/04 18:22:11;;;;;;;64.67;59.53;;;;;;;15.22;100.00;101841.20;1939725;71;39468;-83
2022/05/04 18:27:55;;;;;;;67.53;62.83;;;;;;;15.09;100.00;101843.83;1829621;76;86300;-74
2022/05/04 18:33:39;;;;;;;67.63;63.13;;;;;;;14.62;100.00;101856.44;1883794;74;86275;-76
2022/05/04 18:39:24;;;;;;;64.90;60.60;;;;;;;14.28;100.00;101859.08;1921954;73;84974;-71
2022/05/04 18:45:10;;;;;;;62.23;58.00;;;;;;;14.28;100.00;101870.81;1986585;71;39616;-77
2022/05/04 18:50:55;;;;;;;58.83;54.63;;;;;;;14.39;100.00;101864.09;1893624;74;86067;-72
2022/05/04 18:56:40;;;;;;;61.77;57.67;;;;;;;14.20;100.00;101874.20;1923830;73;86148;-73
2022/05/04 19:02:25;;;;;;;57.20;53.03;;;;;;;14.59;100.00;101876.00;1913102;74;86364;-76
2022/05/04 19:08:31;;;;;;;58.90;54.80;;;;;;;14.43;100.00;101883.36;1984782;71;39409;-75
2022/05/04 19:14:15;;;;;;;57.17;53.07;;;;;;;14.38;100.00;101895.39;1980759;71;39643;-74
2022/05/04 19:20:01;;;;;;;57.30;53.10;;;;;;;14.38;100.00;101902.94;1846807;76;85973;-76
2022/05/04 19:25:45;;;;;;;57.70;53.50;;;;;;;14.27;100.00;101909.11;1888369;73;85341;-75
2022/05/04 19:31:29;;;;;;;57.80;53.60;;;;;;;14.30;100.00;101919.70;1879372;75;86433;-80
2022/05/04 19:37:14;;;;;;;68.63;63.23;;;;;;;14.05;100.00;101935.98;1987353;71;39779;-74
2022/05/04 19:43:01;;;;;;;76.17;70.33;;;;;;;13.94;100.00;101944.11;1877621;75;86214;-79
2022/05/04 19:48:46;;;;;;;73.97;68.27;;;;;;;14.02;100.00;101951.92;1882921;73;85339;-77
2022/05/04 19:54:31;;;;;;;83.20;76.70;;;;;;;13.90;100.00;101958.92;1808195;77;86388;-80
2022/05/04 20:00:17;;;;;;;85.17;78.63;;;;;;;14.13;100.00;101964.74;1985797;71;39641;-80
2022/05/04 20:06:01;;;;;;;72.70;66.50;;;;;;;14.00;100.00;101971.46;1971615;71;86182;-81
2022/05/04 20:11:46;;;;;;;75.37;69.87;;;;;;;13.95;100.00;101972.30;1881602;73;85899;-76
2022/05/04 20:17:32;;;;;;;73.10;67.60;;;;;;;13.97;100.00;101988.23;1806655;77;85479;-78
2022/05/04 20:23:17;;;;;;;66.90;61.90;;;;;;;13.77;100.00;102002.22;1982246;71;39518;-77
2022/05/04 20:29:02;;;;;;;61.83;57.23;;;;;;;13.52;100.00;102011.97;1845325;75;86265;-77
2022/05/04 20:34:46;;;;;;;57.20;52.60;;;;;;;13.42;100.00;102013.33;1886270;74;85506;-76
2022/05/04 20:40:31;;;;;;;58.13;53.87;;;;;;;13.21;100.00;102025.00;1881038;73;85628;-72
2022/05/04 20:46:16;;;;;;;57.70;53.50;;;;;;;13.07;100.00;102038.58;1983786;71;39686;-74
2022/05/04 20:52:14;;;;;;;55.63;51.23;;;;;;;12.98;100.00;102034.64;1839114;76;86362;-72
2022/05/04 20:57:57;;;;;;;58.97;54.60;;;;;;;13.03;100.00;102040.80;1822044;76;86146;-77
2022/05/04 21:03:42;;;;;;;58.93;54.63;;;;;;;12.88;100.00;102049.92;1903093;74;86195;-75
2022/05/04 21:09:26;;;;;;;55.27;51.07;;;;;;;12.80;100.00;102051.83;1946607;73;86700;-71
2022/05/04 21:15:14;;;;;;;57.57;53.17;;;;;;;12.67;100.00;102064.86;1984614;71;39500;-77
2022/05/04 21:21:01;;;;;;;57.10;52.80;;;;;;;12.63;100.00;102070.14;1974571;72;86307;-73
2022/05/04 21:26:46;;;;;;;54.27;50.00;;;;;;;12.50;100.00;102072.01;1885629;73;86642;-72
2022/05/04 21:32:30;;;;;;;56.70;52.40;;;;;;;12.37;100.00;102068.28;1806442;77;85014;-74
2022/05/04 21:38:17;;;;;;;60.00;55.53;;;;;;;12.30;100.00;102076.89;1980872;71;39381;-74
2022/05/04 21:44:01;;;;;;;60.90;56.17;;;;;;;12.23;100.00;102089.38;1861073;76;86666;-74
2022/05/04 21:49:46;;;;;;;61.93;57.13;;;;;;;12.19;100.00;102084.86;1908980;74;85317;-73
2022/05/04 21:55:32;;;;;;;62.00;57.40;;;;;;;12.11;100.00;102094.27;1885749;74;86062;-72
2022/05/04 22:01:14;;;;;;;61.87;57.27;;;;;;;12.01;100.00;102101.99;1941368;71;39679;-76
2022/05/04 22:07:02;;;;;;;56.17;51.67;;;;;;;11.90;100.00;102105.77;1842314;76;86481;-77
2022/05/04 22:18:49;;;;;;;57.30;53.00;;;;;;;11.77;100.00;102118.17;1835003;76;86474;-80
2022/05/04 22:24:33;;;;;;;61.80;57.17;;;;;;;11.95;100.00;102129.49;1803147;77;86341;-76
2022/05/04 22:30:17;;;;;;;57.97;53.27;;;;;;;12.10;100.00;102131.59;1922434;71;39613;-77
2022/05/04 22:36:01;;;;;;;59.93;55.27;;;;;;;11.76;100.00;102134.61;1884231;74;86123;-75
2022/05/04 22:41:46;;;;;;;57.90;53.10;;;;;;;11.62;100.00;102136.08;1885109;74;86144;-76
2022/05/04 22:47:30;;;;;;;57.90;53.17;;;;;;;11.59;100.00;102136.61;1809014;77;86405;-76
2022/05/04 22:53:15;;;;;;;56.60;51.97;;;;;;;11.56;100.00;102141.28;1984351;71;39503;-77
2022/05/04 22:58:58;;;;;;;57.37;52.77;;;;;;;11.54;100.00;102139.88;1959993;71;86245;-76
2022/05/04 23:04:42;;;;;;;58.60;54.07;;;;;;;11.46;100.00;102143.12;1903035;73;85455;-76
2022/05/04 23:10:27;;;;;;;58.93;54.13;;;;;;;11.57;100.00;102151.31;1911654;72;86239;-77
2022/05/04 23:16:11;;;;;;;60.23;55.43;;;;;;;11.77;100.00;102157.69;1981654;71;39681;-77
2022/05/04 23:21:58;;;;;;;56.37;51.77;;;;;;;11.86;100.00;102160.30;1830418;76;86225;-75
2022/05/04 23:27:42;;;;;;;58.37;53.57;;;;;;;11.94;100.00;102154.25;1899454;73;86545;-76
2022/05/04 23:33:27;;;;;;;59.90;55.30;;;;;;;12.09;100.00;102164.72;1915937;72;86224;-76
2022/05/04 23:39:12;;;;;;;59.70;55.10;;;;;;;12.09;100.00;102167.52;1932980;71;39665;-76
2022/05/04 23:44:56;;;;;;;65.97;61.30;;;;;;;12.16;100.00;102168.13;1855719;76;86348;-76
2022/05/04 23:50:41;;;;;;;63.47;58.57;;;;;;;12.17;100.00;102160.91;1884821;75;86019;-75
2022/05/04 23:56:26;;;;;;;61.37;56.77;;;;;;;11.85;100.00;102163.63;1957909;72;86513;-77
